createdAt,value
2023-01-11T00:01:32.365Z,0.73
2023-01-11T00:04:57.199Z,1.43
2023-01-11T00:08:22.088Z,1.00
2023-01-11T00:11:45.769Z,0.90
2023-01-11T00:15:11.569Z,0.80
2023-01-11T00:18:35.510Z,0.80
2023-01-11T00:22:00.381Z,0.73
2023-01-11T00:25:24.853Z,0.70
2023-01-11T00:28:50.119Z,0.80
2023-01-11T00:32:13.918Z,0.87
2023-01-11T00:35:37.929Z,0.77
2023-01-11T00:39:03.144Z,0.70
2023-01-11T00:42:44.549Z,0.70
2023-01-11T00:46:27.125Z,0.80
2023-01-11T00:49:50.899Z,0.67
2023-01-11T00:53:15.341Z,0.77
2023-01-11T00:56:41.066Z,0.70
2023-01-11T01:00:06.292Z,0.77
2023-01-11T01:03:30.132Z,0.80
2023-01-11T01:06:54.591Z,0.70
2023-01-11T01:10:19.268Z,0.70
2023-01-11T01:14:01.995Z,0.70
2023-01-11T01:17:25.627Z,0.80
2023-01-11T01:20:51.650Z,0.70
2023-01-11T01:24:16.018Z,0.60
2023-01-11T01:27:39.847Z,0.60
2023-01-11T01:31:05.107Z,0.70
2023-01-11T01:34:29.031Z,0.67
2023-01-11T01:37:52.424Z,0.70
2023-01-11T01:41:16.550Z,0.80
2023-01-11T01:44:57.165Z,0.70
2023-01-11T01:48:26.724Z,0.60
2023-01-11T01:51:58.580Z,0.90
2023-01-11T01:55:31.175Z,0.77
2023-01-11T01:59:00.731Z,0.70
2023-01-11T02:02:27.303Z,0.70
2023-01-11T02:05:54.489Z,0.60
2023-01-11T02:09:28.961Z,0.70
2023-01-11T02:12:58.196Z,0.70
2023-01-11T02:16:22.126Z,0.63
2023-01-11T02:19:54.596Z,0.70
2023-01-11T02:24:08.179Z,0.67
2023-01-11T02:28:02.144Z,0.77
2023-01-11T02:31:32.762Z,0.80
2023-01-11T02:35:13.359Z,0.60
2023-01-11T02:38:42.800Z,0.70
2023-01-11T02:42:32.003Z,0.60
2023-01-11T02:46:06.640Z,0.70
2023-01-11T02:49:39.029Z,0.90
2023-01-11T02:53:10.654Z,0.63
2023-01-11T02:56:41.416Z,0.70
2023-01-11T03:00:07.138Z,0.60
2023-01-11T03:03:33.717Z,0.60
2023-01-11T03:07:20.817Z,0.70
2023-01-11T03:11:02.982Z,0.60
2023-01-11T03:14:31.530Z,0.80
2023-01-11T03:18:08.358Z,0.70
2023-01-11T03:21:51.108Z,0.60
2023-01-11T03:25:21.968Z,0.60
2023-01-11T03:28:57.303Z,0.77
2023-01-11T03:32:27.951Z,0.60
2023-01-11T03:36:00.056Z,0.57
2023-01-11T03:39:31.123Z,0.60
2023-01-11T03:43:14.558Z,0.60
2023-01-11T03:46:42.513Z,0.60
2023-01-11T03:50:10.967Z,0.60
2023-01-11T03:53:40.363Z,0.60
2023-01-11T03:57:11.457Z,0.60
2023-01-11T04:00:36.181Z,0.60
2023-01-11T04:03:59.695Z,0.60
2023-01-11T04:07:23.456Z,0.60
2023-01-11T04:10:47.259Z,0.60
2023-01-11T04:14:12.675Z,0.60
2023-01-11T04:17:36.413Z,0.60
2023-01-11T04:21:00.446Z,0.60
2023-01-11T04:24:24.441Z,0.60
2023-01-11T04:27:48.917Z,0.67
2023-01-11T04:31:14.111Z,0.70
2023-01-11T04:34:38.369Z,0.60
2023-01-11T04:38:01.766Z,0.57
2023-01-11T04:41:43.118Z,0.60
2023-01-11T04:45:07.825Z,0.60
2023-01-11T04:48:33.382Z,0.50
2023-01-11T04:51:57.104Z,0.70
2023-01-11T04:55:21.419Z,0.60
2023-01-11T04:58:45.154Z,0.60
2023-01-11T05:02:09.026Z,0.70
2023-01-11T05:05:34.010Z,0.70
2023-01-11T05:08:57.864Z,0.50
2023-01-11T05:12:21.871Z,0.60
2023-01-11T05:15:45.936Z,0.60
2023-01-11T05:19:12.395Z,0.60
2023-01-11T05:22:37.540Z,0.50
2023-01-11T05:26:00.983Z,0.60
2023-01-11T05:29:24.817Z,0.60
2023-01-11T05:32:48.612Z,0.50
2023-01-11T05:36:15.342Z,0.50
2023-01-11T05:39:40.477Z,0.60
2023-01-11T05:43:04.345Z,0.60
2023-01-11T05:46:27.790Z,0.57
2023-01-11T05:49:51.246Z,0.70
2023-01-11T05:53:15.555Z,0.50
2023-01-11T05:56:42.386Z,0.50
2023-01-11T06:00:07.159Z,0.50
2023-01-11T06:03:31.007Z,0.60
2023-01-11T06:06:54.961Z,0.60
2023-01-11T06:10:19.589Z,0.60
2023-01-11T06:13:44.442Z,0.70
2023-01-11T06:17:07.958Z,0.60
2023-01-11T06:20:31.399Z,0.57
2023-01-11T06:23:55.377Z,0.50
2023-01-11T06:27:19.355Z,0.60
2023-01-11T06:30:44.336Z,0.50
2023-01-11T06:34:08.223Z,0.60
2023-01-11T06:37:34.156Z,0.60
2023-01-11T06:41:00.684Z,0.60
2023-01-11T06:44:24.768Z,0.60
2023-01-11T06:47:50.177Z,0.60
2023-01-11T06:51:15.109Z,0.60
2023-01-11T06:54:38.602Z,0.60
2023-01-11T06:58:02.580Z,0.53
2023-01-11T07:01:27.487Z,0.60
2023-01-11T07:04:52.785Z,0.70
2023-01-11T07:08:17.291Z,0.60
2023-01-11T07:11:40.727Z,0.60
2023-01-11T07:15:05.739Z,0.60
2023-01-11T07:18:31.583Z,0.60
2023-01-11T07:21:56.759Z,0.70
2023-01-11T07:25:20.262Z,0.80
2023-01-11T07:28:44.689Z,0.60
2023-01-11T07:32:10.698Z,0.60
2023-01-11T07:35:34.652Z,0.70
2023-01-11T07:38:59.467Z,0.70
2023-01-11T07:42:40.958Z,0.60
2023-01-11T07:46:04.469Z,0.50
2023-01-11T07:49:28.537Z,0.63
2023-01-11T07:52:52.413Z,0.70
2023-01-11T07:56:17.800Z,0.70
2023-01-11T07:59:41.610Z,0.70
2023-01-11T08:03:05.529Z,0.70
2023-01-11T08:06:29.704Z,0.80
2023-01-11T08:09:53.519Z,0.70
2023-01-11T08:13:35.828Z,0.80
2023-01-11T08:16:59.567Z,1.00
2023-01-11T08:20:23.573Z,0.70
2023-01-11T08:23:46.978Z,0.80
2023-01-11T08:27:10.963Z,0.60
2023-01-11T08:30:37.201Z,0.80
2023-01-11T08:34:00.996Z,0.60
2023-01-11T08:37:24.837Z,0.60
2023-01-11T08:40:48.734Z,0.60
2023-01-11T08:44:14.807Z,0.70
2023-01-11T08:47:40.191Z,0.80
2023-01-11T08:51:04.041Z,0.60
2023-01-11T08:54:27.607Z,0.60
2023-01-11T08:57:51.558Z,0.60
2023-01-11T09:01:15.417Z,0.60
2023-01-11T09:04:41.139Z,0.60
2023-01-11T09:08:05.369Z,0.60
2023-01-11T09:11:46.737Z,0.53
2023-01-11T09:15:11.299Z,0.50
2023-01-11T09:18:35.150Z,0.60
2023-01-11T09:22:01.966Z,0.63
2023-01-11T09:25:25.767Z,0.73
2023-01-11T09:28:49.591Z,0.70
2023-01-11T09:32:13.502Z,0.60
2023-01-11T09:35:41.785Z,0.60
2023-01-11T09:39:09.928Z,0.57
2023-01-11T09:42:37.524Z,0.60
2023-01-11T09:46:08.862Z,0.60
2023-01-11T09:49:40.706Z,0.60
2023-01-11T09:53:08.912Z,0.60
2023-01-11T09:56:42.428Z,0.60
2023-01-11T10:00:17.328Z,0.70
2023-01-11T10:04:41.457Z,0.70
2023-01-11T10:18:32.087Z,0.63
2023-01-11T10:20:24.463Z,0.60
2023-01-11T10:23:57.503Z,0.70
2023-01-11T10:27:31.372Z,0.60
2023-01-11T10:31:11.237Z,0.70
2023-01-11T10:34:59.938Z,0.60
2023-01-11T10:38:54.595Z,0.70
2023-01-11T10:42:23.634Z,0.80
2023-01-11T10:45:53.842Z,0.70
2023-01-11T10:49:36.015Z,0.60
2023-01-11T10:53:07.728Z,0.60
2023-01-11T10:57:02.394Z,0.50
2023-01-11T11:00:36.635Z,0.70
2023-01-11T11:04:20.795Z,0.60
2023-01-11T11:07:53.618Z,0.90
2023-01-11T11:11:29.062Z,0.70
2023-01-11T11:15:01.666Z,0.70
2023-01-11T11:18:26.648Z,0.77
2023-01-11T11:21:52.435Z,0.70
2023-01-11T11:25:20.922Z,1.00
2023-01-11T11:29:02.095Z,0.90
2023-01-11T11:32:29.783Z,0.90
2023-01-11T11:36:02.124Z,0.80
2023-01-11T11:39:29.945Z,0.60
2023-01-11T11:43:12.288Z,0.70
2023-01-11T11:46:35.760Z,0.70
2023-01-11T11:50:43.038Z,0.70
2023-01-11T11:54:17.330Z,0.60
2023-01-11T11:57:43.854Z,0.67
2023-01-11T12:01:08.181Z,0.70
2023-01-11T12:04:47.152Z,0.60
2023-01-11T12:08:17.567Z,0.60
2023-01-11T12:11:43.029Z,0.60
2023-01-11T12:15:19.941Z,0.67
2023-01-11T12:18:44.395Z,0.63
2023-01-11T12:22:13.189Z,0.60
2023-01-11T12:25:46.401Z,0.70
2023-01-11T12:29:36.374Z,0.70
2023-01-11T12:33:34.190Z,0.60
2023-01-11T12:37:08.183Z,0.80
2023-01-11T12:40:40.666Z,0.80
2023-01-11T12:44:12.144Z,0.70
2023-01-11T12:48:08.372Z,0.70
2023-01-11T12:51:52.067Z,0.60
2023-01-11T12:55:38.713Z,0.60
2023-01-11T12:59:09.148Z,0.90
2023-01-11T13:02:57.031Z,0.73
2023-01-11T13:06:24.916Z,0.77
2023-01-11T13:10:04.291Z,0.80
2023-01-11T13:13:46.455Z,0.80
2023-01-11T13:17:26.505Z,0.87
2023-01-11T13:21:02.162Z,0.80
2023-01-11T13:24:30.873Z,0.73
2023-01-11T13:27:58.160Z,1.03
2023-01-11T13:31:22.830Z,0.90
2023-01-11T13:34:54.021Z,0.77
2023-01-11T13:38:34.629Z,0.70
2023-01-11T13:42:05.077Z,0.87
2023-01-11T13:45:36.098Z,0.70
2023-01-11T13:49:11.673Z,0.70
2023-01-11T13:53:03.292Z,0.77
2023-01-11T13:56:32.569Z,0.90
2023-01-11T14:00:05.794Z,0.83
2023-01-11T14:03:45.227Z,0.90
2023-01-11T14:07:22.633Z,1.10
2023-01-11T14:11:00.726Z,0.90
2023-01-11T14:14:45.693Z,0.90
2023-01-11T14:18:29.311Z,0.90
2023-01-11T14:22:10.326Z,0.77
2023-01-11T14:26:02.445Z,0.90
2023-01-11T14:29:49.439Z,0.90
2023-01-11T14:33:55.981Z,0.80
2023-01-11T14:38:04.215Z,0.80
2023-01-11T14:42:34.263Z,0.67
2023-01-11T14:46:50.871Z,0.80
2023-01-11T14:50:28.647Z,0.80
2023-01-11T14:53:58.891Z,0.90
2023-01-11T14:57:40.645Z,0.70
2023-01-11T15:01:11.653Z,0.93
2023-01-11T15:04:38.856Z,0.60
2023-01-11T15:08:25.051Z,0.80
2023-01-11T15:11:48.591Z,0.83
2023-01-11T15:15:20.681Z,0.70
2023-01-11T15:18:45.657Z,0.70
2023-01-11T15:22:30.286Z,0.70
2023-01-11T15:26:03.958Z,0.90
2023-01-11T15:29:31.841Z,0.70
2023-01-11T15:32:55.978Z,1.00
2023-01-11T15:36:23.733Z,0.90
2023-01-11T15:39:58.354Z,0.80
2023-01-11T15:44:00.719Z,0.70
2023-01-11T15:47:50.492Z,0.90
2023-01-11T15:51:30.341Z,0.97
2023-01-11T15:55:36.950Z,0.83
2023-01-11T15:59:38.092Z,1.00
2023-01-11T16:03:23.833Z,0.80
2023-01-11T16:06:52.933Z,0.80
2023-01-11T16:11:03.868Z,0.80
2023-01-11T16:15:01.456Z,0.87
2023-01-11T16:18:30.879Z,1.00
2023-01-11T16:21:59.316Z,0.90
2023-01-11T16:25:28.467Z,1.07
2023-01-11T16:28:54.345Z,1.10
2023-01-11T16:32:22.670Z,0.97
2023-01-11T16:35:46.585Z,1.50
2023-01-11T16:39:14.349Z,2.13
2023-01-11T16:42:47.509Z,1.90
2023-01-11T16:47:08.209Z,1.90
2023-01-11T16:50:33.014Z,2.07
2023-01-11T16:53:59.209Z,1.50
2023-01-11T16:57:30.162Z,1.50
2023-01-11T17:01:00.371Z,1.03
2023-01-11T17:04:33.923Z,1.27
2023-01-11T17:07:57.827Z,1.10
2023-01-11T17:11:31.903Z,1.47
2023-01-11T17:15:19.588Z,1.00
2023-01-11T17:18:45.182Z,0.90
2023-01-11T17:22:16.331Z,0.70
2023-01-11T17:25:44.894Z,0.90
2023-01-11T17:29:09.559Z,1.10
2023-01-11T17:32:38.165Z,0.90
2023-01-11T17:36:04.280Z,0.80
2023-01-11T17:39:32.879Z,0.97
2023-01-11T17:43:22.221Z,1.07
2023-01-11T17:46:47.188Z,1.00
2023-01-11T17:50:23.545Z,0.93
2023-01-11T17:53:51.586Z,2.20
2023-01-11T17:57:15.313Z,1.70
2023-01-11T18:00:39.585Z,1.57
2023-01-11T18:04:03.528Z,1.50
2023-01-11T18:07:27.455Z,1.13
2023-01-11T18:10:56.071Z,2.23
2023-01-11T18:14:23.666Z,1.07
2023-01-11T18:17:47.103Z,1.30
2023-01-11T18:21:51.248Z,1.00
2023-01-11T18:25:20.870Z,0.87
2023-01-11T18:28:45.933Z,1.10
2023-01-11T18:32:12.806Z,1.23
2023-01-11T18:35:44.545Z,1.00
2023-01-11T18:39:12.182Z,1.17
2023-01-11T18:42:35.992Z,1.10
2023-01-11T18:46:00.892Z,0.90
2023-01-11T18:49:24.735Z,1.10
2023-01-11T18:52:48.543Z,0.80
2023-01-11T18:56:13.355Z,0.77
2023-01-11T18:59:37.220Z,1.10
2023-01-11T19:03:03.013Z,0.90
2023-01-11T19:06:28.403Z,1.20
2023-01-11T19:09:54.739Z,1.10
2023-01-11T19:13:19.251Z,1.30
2023-01-11T19:16:43.111Z,1.10
2023-01-11T19:20:11.064Z,0.97
2023-01-11T19:23:35.156Z,1.40
2023-01-11T19:26:59.137Z,1.03
2023-01-11T19:30:22.719Z,1.10
2023-01-11T19:33:46.403Z,1.20
2023-01-11T19:37:11.226Z,1.03
2023-01-11T19:40:34.617Z,0.97
2023-01-11T19:43:58.440Z,1.13
2023-01-11T19:47:23.048Z,1.30
2023-01-11T19:50:46.994Z,1.13
2023-01-11T19:54:14.629Z,1.10
2023-01-11T19:57:38.613Z,1.30
2023-01-11T20:01:02.309Z,1.30
2023-01-11T20:04:26.828Z,1.07
2023-01-11T20:07:50.741Z,1.07
2023-01-11T20:11:16.629Z,1.00
2023-01-11T20:14:40.877Z,1.10
2023-01-11T20:18:04.979Z,1.23
2023-01-11T20:21:33.924Z,1.40
2023-01-11T20:24:57.411Z,1.00
2023-01-11T20:28:22.275Z,1.00
2023-01-11T20:31:45.743Z,1.10
2023-01-11T20:35:11.408Z,0.80
2023-01-11T20:38:35.083Z,0.97
2023-01-11T20:41:59.001Z,0.83
2023-01-11T20:45:24.178Z,1.00
2023-01-11T20:48:49.542Z,0.80
2023-01-11T20:52:13.295Z,1.00
2023-01-11T20:55:38.299Z,1.00
2023-01-11T20:59:03.138Z,0.80
2023-01-11T21:02:28.314Z,1.00
2023-01-11T21:05:53.809Z,0.70
2023-01-11T21:09:19.589Z,0.93
2023-01-11T21:12:43.397Z,0.70
2023-01-11T21:16:08.915Z,0.60
2023-01-11T21:19:33.715Z,0.90
2023-01-11T21:22:57.567Z,0.93
2023-01-11T21:26:21.537Z,0.97
2023-01-11T21:29:44.936Z,1.10
2023-01-11T21:33:08.816Z,0.93
2023-01-11T21:36:34.328Z,0.80
2023-01-11T21:39:58.221Z,1.00
2023-01-11T21:43:22.131Z,1.00
2023-01-11T21:46:47.042Z,0.90
2023-01-11T21:50:12.214Z,1.00
2023-01-11T21:53:37.757Z,0.70
2023-01-11T21:57:01.328Z,1.10
2023-01-11T22:00:25.370Z,1.10
2023-01-11T22:03:49.773Z,0.80
2023-01-11T22:07:13.265Z,1.37
2023-01-11T22:10:39.308Z,1.00
2023-01-11T22:14:04.052Z,0.90
2023-01-11T22:17:27.833Z,0.80
2023-01-11T22:20:51.642Z,1.20
2023-01-11T22:24:15.873Z,0.80
2023-01-11T22:27:41.103Z,0.90
2023-01-11T22:31:07.641Z,0.80
2023-01-11T22:34:34.096Z,1.17
2023-01-11T22:37:57.896Z,0.93
2023-01-11T22:41:22.200Z,1.07
2023-01-11T22:44:47.445Z,1.10
2023-01-11T22:48:11.196Z,0.83
2023-01-11T22:51:35.816Z,0.70
2023-01-11T22:54:59.766Z,0.90
2023-01-11T22:58:23.223Z,0.80
2023-01-11T23:01:48.407Z,0.80
2023-01-11T23:05:12.224Z,0.80
2023-01-11T23:08:40.883Z,0.90
2023-01-11T23:12:22.194Z,1.03
2023-01-11T23:15:46.086Z,1.00
2023-01-11T23:19:12.833Z,1.17
2023-01-11T23:22:36.577Z,0.80
2023-01-11T23:26:00.363Z,0.87
2023-01-11T23:29:24.159Z,0.90
2023-01-11T23:32:47.656Z,0.73
2023-01-11T23:36:13.049Z,0.90
2023-01-11T23:39:36.884Z,0.70
2023-01-11T23:43:00.154Z,0.90
2023-01-11T23:46:41.976Z,1.00
2023-01-11T23:50:06.422Z,0.70
2023-01-11T23:53:31.567Z,1.10
2023-01-11T23:56:55.641Z,0.90
